createdAt,value
2023-04-19T00:00:08.336Z,21.77
2023-04-19T00:02:36.286Z,23.48
2023-04-19T00:05:03.812Z,24.85
2023-04-19T00:07:30.896Z,21.95
2023-04-19T00:09:57.756Z,22.55
2023-04-19T00:12:24.961Z,23.55
2023-04-19T00:14:51.867Z,22.20
2023-04-19T00:17:19.473Z,23.30
2023-04-19T00:19:46.413Z,25.17
2023-04-19T00:22:13.321Z,22.33
2023-04-19T00:24:40.350Z,23.88
2023-04-19T00:27:07.295Z,23.55
2023-04-19T00:29:34.322Z,26.95
2023-04-19T00:32:01.579Z,23.70
2023-04-19T00:34:28.401Z,24.02
2023-04-19T00:36:56.976Z,23.98
2023-04-19T00:39:24.154Z,26.15
2023-04-19T00:41:51.081Z,28.70
2023-04-19T00:44:19.090Z,24.42
2023-04-19T00:46:46.240Z,23.63
2023-04-19T00:49:13.274Z,24.85
2023-04-19T00:51:40.382Z,25.67
2023-04-19T00:54:08.929Z,24.45
2023-04-19T00:56:36.049Z,23.42
2023-04-19T00:59:02.977Z,24.70
2023-04-19T01:01:31.422Z,26.52
2023-04-19T01:03:58.759Z,27.83
2023-04-19T01:06:27.866Z,26.70
2023-04-19T01:08:54.755Z,30.50
2023-04-19T01:11:26.356Z,27.00
2023-04-19T01:13:53.418Z,30.80
2023-04-19T01:16:20.522Z,32.70
2023-04-19T01:18:49.583Z,27.83
2023-04-19T01:21:17.299Z,29.00
2023-04-19T01:23:44.635Z,29.90
2023-04-19T01:26:11.487Z,29.88
2023-04-19T01:28:38.555Z,30.83
2023-04-19T01:31:05.520Z,29.77
2023-04-19T01:33:32.582Z,29.85
2023-04-19T01:36:00.260Z,29.10
2023-04-19T01:38:27.291Z,31.27
2023-04-19T01:40:56.767Z,27.73
2023-04-19T01:43:24.858Z,31.50
2023-04-19T01:45:51.763Z,30.17
2023-04-19T01:48:19.813Z,33.10
2023-04-19T01:50:46.649Z,32.00
2023-04-19T01:53:13.553Z,28.02
2023-04-19T01:55:40.501Z,29.83
2023-04-19T01:58:07.422Z,32.22
2023-04-19T02:00:34.622Z,29.98
2023-04-19T02:03:04.680Z,29.55
2023-04-19T02:05:31.768Z,30.15
2023-04-19T02:08:01.405Z,31.38
2023-04-19T02:10:31.012Z,30.70
2023-04-19T02:12:58.132Z,29.27
2023-04-19T02:15:24.996Z,34.53
2023-04-19T02:17:51.953Z,32.75
2023-04-19T02:20:19.488Z,30.23
2023-04-19T02:22:47.934Z,30.73
2023-04-19T02:25:16.560Z,31.85
2023-04-19T02:27:43.425Z,30.65
2023-04-19T02:30:11.111Z,32.45
2023-04-19T02:32:38.300Z,32.90
2023-04-19T02:35:07.006Z,33.60
2023-04-19T02:37:33.988Z,35.90
2023-04-19T02:40:00.886Z,31.38
2023-04-19T02:42:29.346Z,38.22
2023-04-19T02:44:56.399Z,36.17
2023-04-19T02:47:24.613Z,34.38
2023-04-19T02:49:51.643Z,33.92
2023-04-19T02:52:19.887Z,35.30
2023-04-19T02:54:46.738Z,34.83
2023-04-19T02:57:13.722Z,35.90
2023-04-19T02:59:43.085Z,36.63
2023-04-19T03:02:10.247Z,39.92
2023-04-19T03:04:37.736Z,34.92
2023-04-19T03:07:04.798Z,33.72
2023-04-19T03:09:31.759Z,35.63
2023-04-19T03:11:58.693Z,33.38
2023-04-19T03:14:25.554Z,37.50
2023-04-19T03:16:52.929Z,37.25
2023-04-19T03:19:19.846Z,37.30
2023-04-19T03:21:51.196Z,37.22
2023-04-19T03:24:20.349Z,35.22
2023-04-19T03:26:51.478Z,39.17
2023-04-19T03:29:23.469Z,36.30
2023-04-19T03:32:12.406Z,37.72
2023-04-19T03:34:39.312Z,38.40
2023-04-19T03:37:06.148Z,38.78
2023-04-19T03:39:33.545Z,41.55
2023-04-19T03:42:04.164Z,34.85
2023-04-19T03:44:44.962Z,40.55
2023-04-19T03:47:12.023Z,35.75
2023-04-19T03:49:43.616Z,39.70
2023-04-19T03:52:10.887Z,39.50
2023-04-19T03:54:37.767Z,36.45
2023-04-19T03:57:08.825Z,40.55
2023-04-19T03:59:39.434Z,39.47
2023-04-19T04:02:07.041Z,36.58
2023-04-19T04:04:34.513Z,39.40
2023-04-19T04:07:02.445Z,38.83
2023-04-19T04:09:29.394Z,40.22
2023-04-19T04:11:56.339Z,36.38
2023-04-19T04:14:24.644Z,37.22
2023-04-19T04:16:51.818Z,43.08
2023-04-19T04:19:19.517Z,35.63
2023-04-19T04:21:46.715Z,39.90
2023-04-19T04:24:13.918Z,36.78
2023-04-19T04:26:51.540Z,37.95
2023-04-19T04:29:30.227Z,35.42
2023-04-19T04:32:00.242Z,37.05
2023-04-19T04:34:33.873Z,41.50
2023-04-19T04:37:08.886Z,36.70
2023-04-19T04:39:39.755Z,37.65
2023-04-19T04:42:09.121Z,35.35
2023-04-19T04:44:37.162Z,39.78
2023-04-19T04:47:04.212Z,40.55
2023-04-19T04:49:37.573Z,40.00
2023-04-19T04:52:04.850Z,44.85
2023-04-19T04:54:36.469Z,39.30
2023-04-19T04:57:04.903Z,39.20
2023-04-19T04:59:31.757Z,38.67
2023-04-19T05:01:59.110Z,36.67
2023-04-19T05:04:26.176Z,35.20
2023-04-19T05:06:53.121Z,37.42
2023-04-19T05:09:24.719Z,37.22
2023-04-19T05:11:51.908Z,41.17
2023-04-19T05:14:19.135Z,36.00
2023-04-19T05:16:46.321Z,38.25
2023-04-19T05:19:13.464Z,37.47
2023-04-19T05:21:46.577Z,35.67
2023-04-19T05:24:15.452Z,33.17
2023-04-19T05:26:43.111Z,35.00
2023-04-19T05:29:11.767Z,32.60
2023-04-19T05:31:46.471Z,35.45
2023-04-19T05:34:22.303Z,35.50
2023-04-19T05:36:50.094Z,32.17
2023-04-19T05:39:17.449Z,31.80
2023-04-19T05:41:44.565Z,31.20
2023-04-19T05:44:11.746Z,33.47
2023-04-19T05:46:38.782Z,32.78
2023-04-19T05:49:08.284Z,30.58
2023-04-19T05:51:55.560Z,31.45
2023-04-19T05:54:36.688Z,34.33
2023-04-19T05:57:05.357Z,29.17
2023-04-19T05:59:32.309Z,33.92
2023-04-19T06:02:16.010Z,37.22
2023-04-19T06:04:43.431Z,31.55
2023-04-19T06:07:26.712Z,32.00
2023-04-19T06:09:58.477Z,27.63
2023-04-19T06:12:25.511Z,30.05
2023-04-19T06:14:53.362Z,28.70
2023-04-19T06:17:24.630Z,26.98
2023-04-19T06:19:52.443Z,28.63
2023-04-19T06:22:19.326Z,25.83
2023-04-19T06:24:47.050Z,25.92
2023-04-19T06:27:15.626Z,25.27
2023-04-19T06:29:42.989Z,25.02
2023-04-19T06:32:10.067Z,29.73
2023-04-19T06:34:37.050Z,26.20
2023-04-19T06:37:04.418Z,24.08
2023-04-19T06:39:31.409Z,23.27
2023-04-19T06:41:58.231Z,29.45
2023-04-19T06:44:25.167Z,26.00
2023-04-19T06:46:52.012Z,22.45
2023-04-19T06:49:18.967Z,28.45
2023-04-19T06:51:45.891Z,23.10
2023-04-19T06:54:12.838Z,29.85
2023-04-19T06:56:50.183Z,23.55
2023-04-19T06:59:19.957Z,21.73
2023-04-19T07:01:48.222Z,26.33
2023-04-19T07:04:15.967Z,22.27
2023-04-19T07:06:43.311Z,21.23
2023-04-19T07:09:10.554Z,21.98
2023-04-19T07:11:37.546Z,21.25
2023-04-19T07:14:04.426Z,24.58
2023-04-19T07:16:31.457Z,22.60
2023-04-19T07:18:58.644Z,22.10
2023-04-19T07:21:28.718Z,22.48
2023-04-19T07:23:55.717Z,21.27
2023-04-19T07:26:22.563Z,22.80
2023-04-19T07:28:50.361Z,23.77
2023-04-19T07:31:18.533Z,19.83
2023-04-19T07:33:45.741Z,18.95
2023-04-19T07:36:12.774Z,18.42
2023-04-19T07:38:40.093Z,28.33
2023-04-19T07:41:07.007Z,18.42
2023-04-19T07:43:33.971Z,23.05
2023-04-19T07:46:01.334Z,20.98
2023-04-19T07:48:28.310Z,18.67
2023-04-19T07:50:55.349Z,19.75
2023-04-19T07:53:22.339Z,20.77
2023-04-19T07:55:49.198Z,24.75
2023-04-19T07:58:16.134Z,18.70
2023-04-19T08:00:43.076Z,21.23
2023-04-19T08:03:10.252Z,18.00
2023-04-19T08:05:37.287Z,22.35
2023-04-19T08:08:04.360Z,23.08
2023-04-19T08:10:31.525Z,19.10
2023-04-19T08:13:05.905Z,22.90
2023-04-19T08:18:05.279Z,17.65
2023-04-19T08:20:32.701Z,16.42
2023-04-19T08:23:07.236Z,18.15
2023-04-19T08:25:41.435Z,18.42
2023-04-19T08:28:08.393Z,33.92
2023-04-19T08:30:35.541Z,17.27
2023-04-19T08:33:02.667Z,14.27
2023-04-19T08:35:29.973Z,16.30
2023-04-19T08:37:56.998Z,16.10
2023-04-19T08:40:24.586Z,17.10
2023-04-19T08:42:51.735Z,16.05
2023-04-19T08:48:00.511Z,16.85
2023-04-19T08:53:12.298Z,13.15
2023-04-19T08:58:30.726Z,13.75
2023-04-19T09:01:00.616Z,14.80
2023-04-19T09:03:27.941Z,12.85
2023-04-19T09:05:55.301Z,15.18
2023-04-19T09:08:28.239Z,15.85
2023-04-19T09:11:01.964Z,13.32
2023-04-19T09:13:30.289Z,13.10
2023-04-19T09:15:58.037Z,14.75
2023-04-19T09:18:25.151Z,10.90
2023-04-19T09:21:02.032Z,23.25
2023-04-19T09:23:29.064Z,12.30
2023-04-19T09:26:22.966Z,14.15
2023-04-19T09:28:58.134Z,15.43
2023-04-19T09:31:47.335Z,20.27
2023-04-19T09:34:16.111Z,14.93
2023-04-19T09:36:43.149Z,20.98
2023-04-19T09:39:11.196Z,17.17
2023-04-19T09:41:54.328Z,17.27
2023-04-19T09:45:01.764Z,13.48
2023-04-19T09:47:26.230Z,20.67
2023-04-19T09:50:21.922Z,15.43
2023-04-19T09:52:50.974Z,15.57
2023-04-19T09:57:49.270Z,17.92
2023-04-19T10:00:16.441Z,17.75
2023-04-19T10:02:45.266Z,19.48
2023-04-19T10:05:20.323Z,13.70
2023-04-19T10:07:49.898Z,15.18
2023-04-19T10:10:22.557Z,18.08
2023-04-19T10:15:26.859Z,16.77
2023-04-19T10:17:56.827Z,13.90
2023-04-19T10:20:30.600Z,16.98
2023-04-19T10:22:57.598Z,17.58
2023-04-19T10:25:30.942Z,14.70
2023-04-19T10:27:58.314Z,15.55
2023-04-19T10:30:29.128Z,14.95
2023-04-19T10:32:57.934Z,15.52
2023-04-19T10:35:26.341Z,18.70
2023-04-19T10:38:08.663Z,14.07
2023-04-19T10:40:56.618Z,21.08
2023-04-19T10:43:25.205Z,18.27
2023-04-19T10:45:52.443Z,21.23
2023-04-19T10:48:30.902Z,20.42
2023-04-19T10:50:58.435Z,20.58
2023-04-19T10:53:48.767Z,14.20
2023-04-19T10:56:17.711Z,18.08
2023-04-19T10:59:08.145Z,23.50
2023-04-19T11:01:40.435Z,15.93
2023-04-19T11:04:11.830Z,15.82
2023-04-19T11:07:01.608Z,15.02
2023-04-19T11:09:35.693Z,17.80
2023-04-19T11:12:05.378Z,19.38
2023-04-19T11:14:35.352Z,19.02
2023-04-19T11:17:13.735Z,14.35
2023-04-19T11:19:55.867Z,16.70
2023-04-19T11:22:42.914Z,14.68
2023-04-19T11:25:10.947Z,18.27
2023-04-19T11:27:38.957Z,16.20
2023-04-19T11:30:08.928Z,13.95
2023-04-19T11:32:37.032Z,15.90
2023-04-19T11:35:08.961Z,18.25
2023-04-19T11:37:37.292Z,14.30
2023-04-19T11:40:06.338Z,17.45
2023-04-19T11:42:34.207Z,15.43
2023-04-19T11:45:01.171Z,15.68
2023-04-19T11:47:28.380Z,18.58
2023-04-19T11:49:56.495Z,12.57
2023-04-19T11:52:25.613Z,18.60
2023-04-19T11:54:53.530Z,16.27
2023-04-19T11:57:32.856Z,13.90
2023-04-19T12:00:11.662Z,13.70
2023-04-19T12:02:44.203Z,16.05
2023-04-19T12:05:16.336Z,14.05
2023-04-19T12:08:07.993Z,13.73
2023-04-19T12:10:36.078Z,15.07
2023-04-19T12:13:18.149Z,13.90
2023-04-19T12:15:46.777Z,16.13
2023-04-19T12:18:14.206Z,16.23
2023-04-19T12:20:46.636Z,16.05
2023-04-19T12:23:15.654Z,13.73
2023-04-19T12:25:45.085Z,13.18
2023-04-19T12:28:13.221Z,16.05
2023-04-19T12:30:40.302Z,19.52
2023-04-19T12:33:08.145Z,23.98
2023-04-19T12:35:36.280Z,17.67
2023-04-19T12:38:03.502Z,14.82
2023-04-19T12:40:31.062Z,25.02
2023-04-19T12:42:58.209Z,12.77
2023-04-19T12:45:25.467Z,23.55
2023-04-19T12:47:52.524Z,23.30
2023-04-19T12:50:19.468Z,26.13
2023-04-19T12:52:46.325Z,14.43
2023-04-19T12:55:13.242Z,15.02
2023-04-19T12:57:40.179Z,17.73
2023-04-19T13:00:07.739Z,20.10
2023-04-19T13:02:35.394Z,13.32
2023-04-19T13:05:04.152Z,7.70
2023-04-19T13:07:31.622Z,10.88
2023-04-19T13:09:58.523Z,24.33
2023-04-19T13:12:25.602Z,13.50
2023-04-19T13:14:52.742Z,28.50
2023-04-19T13:17:20.709Z,19.10
2023-04-19T13:19:47.838Z,12.25
2023-04-19T13:22:15.610Z,12.68
2023-04-19T13:24:42.527Z,18.75
2023-04-19T13:27:09.934Z,16.15
2023-04-19T13:29:37.229Z,11.77
2023-04-19T13:32:07.545Z,15.48
2023-04-19T13:34:35.577Z,18.35
2023-04-19T13:37:02.423Z,16.33
2023-04-19T13:39:29.380Z,25.42
2023-04-19T13:41:56.709Z,8.05
2023-04-19T13:44:25.233Z,8.40
2023-04-19T13:46:52.224Z,24.98
2023-04-19T13:49:19.417Z,19.67
2023-04-19T13:51:50.773Z,17.58
2023-04-19T13:54:19.859Z,14.85
2023-04-19T13:56:49.779Z,12.70
2023-04-19T13:59:18.416Z,10.88
2023-04-19T14:01:45.281Z,24.08
2023-04-19T14:04:12.497Z,10.35
2023-04-19T14:06:39.573Z,8.63
2023-04-19T14:09:06.808Z,11.35
2023-04-19T14:11:33.939Z,19.10
2023-04-19T14:14:00.862Z,7.10
2023-04-19T14:16:27.745Z,12.38
2023-04-19T14:18:54.719Z,5.68
2023-04-19T14:21:21.576Z,9.15
2023-04-19T14:23:48.483Z,15.60
2023-04-19T14:26:15.617Z,10.27
2023-04-19T14:28:42.524Z,13.50
2023-04-19T14:31:09.426Z,14.98
2023-04-19T14:33:36.620Z,12.77
2023-04-19T14:36:04.623Z,11.00
2023-04-19T14:38:31.775Z,15.45
2023-04-19T14:40:58.737Z,17.25
2023-04-19T14:43:26.113Z,15.57
2023-04-19T14:45:53.229Z,14.63
2023-04-19T14:48:22.069Z,11.23
2023-04-19T14:50:49.378Z,15.98
2023-04-19T14:53:16.433Z,12.02
2023-04-19T14:55:43.386Z,13.38
2023-04-19T14:58:10.452Z,11.48
2023-04-19T15:00:37.365Z,9.98
2023-04-19T15:03:04.900Z,14.30
2023-04-19T15:05:34.988Z,9.77
2023-04-19T15:08:02.114Z,13.15
2023-04-19T15:10:29.004Z,7.72
2023-04-19T15:12:56.121Z,8.25
2023-04-19T15:15:22.964Z,11.48
2023-04-19T15:17:50.053Z,12.95
2023-04-19T15:20:17.069Z,16.13
2023-04-19T15:22:43.958Z,9.07
2023-04-19T15:25:11.083Z,6.35
2023-04-19T15:27:38.125Z,13.85
2023-04-19T15:30:06.328Z,6.43
2023-04-19T15:32:36.557Z,6.63
2023-04-19T15:35:03.803Z,10.90
2023-04-19T15:37:32.008Z,5.65
2023-04-19T15:39:58.984Z,9.80
2023-04-19T15:42:25.991Z,9.18
2023-04-19T15:44:52.914Z,11.10
2023-04-19T15:47:19.848Z,9.82
2023-04-19T15:49:48.079Z,6.00
2023-04-19T15:52:15.159Z,5.82
2023-04-19T15:54:42.100Z,10.45
2023-04-19T15:57:08.926Z,9.90
2023-04-19T15:59:35.857Z,9.85
2023-04-19T16:02:02.943Z,22.10
2023-04-19T16:04:31.343Z,14.75
2023-04-19T16:06:58.861Z,8.00
2023-04-19T16:09:26.694Z,8.45
2023-04-19T16:11:53.537Z,10.38
2023-04-19T16:14:20.565Z,6.78
2023-04-19T16:16:48.307Z,7.25
2023-04-19T16:19:15.517Z,5.60
2023-04-19T16:21:42.442Z,6.45
2023-04-19T16:24:09.462Z,6.63
2023-04-19T16:26:36.330Z,9.75
2023-04-19T16:29:03.247Z,10.02
2023-04-19T16:31:30.541Z,8.25
2023-04-19T16:33:57.488Z,5.03
2023-04-19T16:36:24.420Z,7.35
2023-04-19T16:38:51.503Z,5.57
2023-04-19T16:41:18.313Z,6.85
2023-04-19T16:43:45.254Z,14.50
2023-04-19T16:46:12.163Z,8.50
2023-04-19T16:48:39.118Z,8.85
2023-04-19T16:51:06.207Z,9.65
2023-04-19T16:53:33.176Z,6.82
2023-04-19T16:56:00.341Z,7.03
2023-04-19T16:58:27.366Z,8.30
2023-04-19T17:00:54.191Z,6.63
2023-04-19T17:03:21.844Z,6.85
2023-04-19T17:05:48.902Z,5.05
2023-04-19T17:08:16.027Z,5.68
2023-04-19T17:10:42.921Z,6.97
2023-04-19T17:13:09.820Z,7.57
2023-04-19T17:15:38.105Z,8.02
2023-04-19T17:18:05.373Z,6.45
2023-04-19T17:20:32.530Z,6.63
2023-04-19T17:22:59.648Z,21.35
2023-04-19T17:25:26.557Z,15.73
2023-04-19T17:27:53.422Z,12.50
2023-04-19T17:30:20.803Z,19.80
2023-04-19T17:32:47.859Z,14.50
2023-04-19T17:35:15.245Z,18.38
2023-04-19T17:37:43.627Z,22.75
2023-04-19T17:40:10.996Z,15.05
2023-04-19T17:42:37.952Z,15.63
2023-04-19T17:45:06.904Z,22.52
2023-04-19T17:47:33.902Z,22.70
2023-04-19T17:50:09.404Z,14.50
2023-04-19T17:52:36.316Z,18.05
2023-04-19T17:55:04.592Z,14.50
2023-04-19T17:57:33.801Z,26.65
2023-04-19T18:00:06.080Z,18.73
2023-04-19T18:02:36.257Z,28.00
2023-04-19T18:05:03.705Z,13.60
2023-04-19T18:07:30.592Z,17.45
2023-04-19T18:09:57.510Z,17.77
2023-04-19T18:12:24.399Z,18.80
2023-04-19T18:14:51.425Z,18.83
2023-04-19T18:17:18.319Z,23.83
2023-04-19T18:19:45.458Z,21.73
2023-04-19T18:22:12.341Z,26.83
2023-04-19T18:24:40.870Z,22.08
2023-04-19T18:27:07.820Z,22.95
2023-04-19T18:29:34.825Z,21.48
2023-04-19T18:32:01.773Z,24.00
2023-04-19T18:34:28.747Z,25.75
2023-04-19T18:37:00.184Z,23.08
2023-04-19T18:39:27.847Z,21.95
2023-04-19T18:41:56.337Z,23.95
2023-04-19T18:44:39.018Z,27.40
2023-04-19T18:47:11.552Z,32.72
2023-04-19T18:49:38.392Z,27.77
2023-04-19T18:52:05.576Z,30.65
2023-04-19T18:54:32.455Z,34.38
2023-04-19T18:57:21.757Z,24.40
2023-04-19T18:59:46.289Z,27.17
2023-04-19T19:02:13.189Z,24.65
2023-04-19T19:04:51.961Z,25.00
2023-04-19T19:07:35.665Z,34.10
2023-04-19T19:10:17.265Z,30.17
2023-04-19T19:12:47.855Z,26.88
2023-04-19T19:15:15.026Z,27.15
2023-04-19T19:17:43.256Z,27.65
2023-04-19T19:20:10.777Z,24.48
2023-04-19T19:22:37.726Z,22.50
2023-04-19T19:25:05.102Z,23.80
2023-04-19T19:27:32.136Z,25.63
2023-04-19T19:29:59.005Z,22.90
2023-04-19T19:32:26.001Z,24.30
2023-04-19T19:35:00.603Z,16.48
2023-04-19T19:37:28.627Z,21.30
2023-04-19T19:39:56.965Z,23.85
2023-04-19T19:42:24.670Z,20.50
2023-04-19T19:44:55.917Z,19.77
2023-04-19T19:47:24.338Z,13.30
2023-04-19T19:50:34.789Z,14.15
2023-04-19T19:52:38.745Z,18.65
2023-04-19T19:55:06.335Z,15.07
2023-04-19T20:00:23.013Z,17.33
2023-04-19T20:02:55.880Z,30.27
2023-04-19T20:05:24.183Z,15.63
2023-04-19T20:10:21.229Z,15.63
2023-04-19T20:12:48.120Z,19.02
2023-04-19T20:15:15.040Z,16.13
2023-04-19T20:17:42.016Z,18.42
2023-04-19T20:20:11.133Z,14.55
2023-04-19T20:22:38.435Z,21.30
2023-04-19T20:25:05.814Z,21.17
2023-04-19T20:27:33.325Z,18.38
2023-04-19T20:30:00.881Z,28.65
2023-04-19T20:32:27.876Z,22.55
2023-04-19T20:34:55.000Z,20.55
2023-04-19T20:37:22.536Z,24.42
2023-04-19T20:39:49.527Z,20.77
2023-04-19T20:42:16.819Z,20.42
2023-04-19T20:44:43.740Z,25.00
2023-04-19T20:47:12.854Z,21.23
2023-04-19T20:49:40.395Z,22.77
2023-04-19T20:52:07.288Z,29.77
2023-04-19T20:54:36.503Z,20.92
2023-04-19T20:57:04.699Z,24.00
2023-04-19T20:59:31.855Z,21.77
2023-04-19T21:01:59.911Z,23.50
2023-04-19T21:04:27.081Z,21.75
2023-04-19T21:06:54.197Z,16.63
2023-04-19T21:09:21.494Z,34.63
2023-04-19T21:11:48.420Z,20.23
2023-04-19T21:14:15.433Z,25.85
2023-04-19T21:16:42.258Z,21.00
2023-04-19T21:19:09.210Z,25.95
2023-04-19T21:21:36.026Z,25.33
2023-04-19T21:24:02.949Z,22.75
2023-04-19T21:26:29.850Z,25.05
2023-04-19T21:28:56.742Z,20.25
2023-04-19T21:31:23.624Z,19.15
2023-04-19T21:33:50.652Z,17.77
2023-04-19T21:36:17.548Z,13.55
2023-04-19T21:38:44.472Z,17.92
2023-04-19T21:41:11.390Z,15.65
2023-04-19T21:43:38.322Z,16.85
2023-04-19T21:46:05.378Z,13.90
2023-04-19T21:48:32.500Z,20.70
2023-04-19T21:51:01.164Z,16.15
2023-04-19T21:53:28.213Z,19.65
2023-04-19T21:55:55.271Z,18.65
2023-04-19T21:58:22.228Z,18.25
2023-04-19T22:00:49.371Z,20.13
2023-04-19T22:03:16.544Z,15.55
2023-04-19T22:05:46.151Z,13.85
2023-04-19T22:08:13.184Z,17.25
2023-04-19T22:10:41.101Z,11.40
2023-04-19T22:13:08.742Z,11.02
2023-04-19T22:15:36.492Z,9.27
2023-04-19T22:18:04.143Z,8.80
2023-04-19T22:20:33.756Z,13.85
2023-04-19T22:23:00.864Z,13.18
2023-04-19T22:25:28.044Z,9.02
2023-04-19T22:27:55.202Z,16.25
2023-04-19T22:30:22.084Z,14.85
2023-04-19T22:32:49.044Z,13.73
2023-04-19T22:35:16.036Z,18.65
2023-04-19T22:37:43.066Z,11.65
2023-04-19T22:40:10.477Z,20.65
2023-04-19T22:42:37.374Z,9.48
2023-04-19T22:45:04.646Z,7.88
2023-04-19T22:47:33.353Z,9.48
2023-04-19T22:50:00.298Z,14.35
2023-04-19T22:52:27.785Z,12.55
2023-04-19T22:54:54.793Z,8.90
2023-04-19T22:57:21.752Z,12.60
2023-04-19T22:59:48.904Z,8.88
2023-04-19T23:02:16.010Z,11.23
2023-04-19T23:04:44.817Z,7.18
2023-04-19T23:07:11.881Z,9.05
2023-04-19T23:09:39.346Z,14.35
2023-04-19T23:12:07.001Z,12.60
2023-04-19T23:14:34.003Z,9.98
2023-04-19T23:17:02.759Z,10.18
2023-04-19T23:19:30.467Z,9.05
2023-04-19T23:21:57.444Z,7.43
2023-04-19T23:24:24.599Z,10.02
2023-04-19T23:26:52.138Z,14.40
2023-04-19T23:29:19.328Z,11.90
2023-04-19T23:31:46.448Z,9.80
2023-04-19T23:34:14.142Z,8.88
2023-04-19T23:36:41.191Z,9.57
2023-04-19T23:39:08.100Z,9.63
2023-04-19T23:41:35.054Z,10.32
2023-04-19T23:44:01.927Z,8.15
2023-04-19T23:46:28.916Z,9.82
2023-04-19T23:48:55.946Z,8.68
2023-04-19T23:51:22.882Z,9.80
2023-04-19T23:53:49.790Z,8.52
2023-04-19T23:56:16.754Z,7.38
2023-04-19T23:58:43.587Z,10.75
